Time;durP1;ratioP1;P1;durP2;ratioP2;P2;SDS_P1;SDS_P2;PMS_P1;PMS_P2;Temp;Humidity;BMP_temperature;BMP_pressure;BME280_temperature;BME280_humidity;BME280_pressure;Samples;Min_cycle;Max_cycle;Signal;HPM_P1;HPM_P2
2022/03/28 00:00:00;;;;;;;2.83;2.55;;;;;;;;;;6242063;23;20470;-76
2022/03/28 00:02:26;;;;;;;1.98;1.85;;;;;;;;;;6242230;23;20028;-76
2022/03/28 00:04:52;;;;;;;1.88;1.77;;;;;;;;;;6242370;23;20451;-76
2022/03/28 00:07:18;;;;;;;1.58;1.50;;;;;;;;;;6192083;23;20087;-75
2022/03/28 00:09:43;;;;;;;1.52;1.42;;;;;;;;;;6219190;23;20016;-75
2022/03/28 00:12:10;;;;;;;1.60;1.50;;;;;;;;;;6247782;23;20035;-75
2022/03/28 00:14:36;;;;;;;1.83;1.40;;;;;;;;;;6258358;22;20030;-75
2022/03/28 00:17:03;;;;;;;1.50;1.40;;;;;;;;;;6297377;22;20042;-75
2022/03/28 00:19:28;;;;;;;1.50;1.40;;;;;;;;;;6300318;22;19995;-76
2022/03/28 00:21:56;;;;;;;4.00;1.77;;;;;;;;;;6248908;22;20003;-76
2022/03/28 00:24:22;;;;;;;1.10;1.00;;;;;;;;;;6299752;22;20022;-75
2022/03/28 00:26:48;;;;;;;0.90;0.90;;;;;;;;;;6272987;22;20015;-77
2022/03/28 00:29:14;;;;;;;1.30;1.30;;;;;;;;;;6273530;22;20049;-76
2022/03/28 00:31:40;;;;;;;1.40;1.40;;;;;;;;;;6298692;22;20022;-76
2022/03/28 00:34:06;;;;;;;1.85;1.58;;;;;;;;;;6299207;22;20075;-77
2022/03/28 00:36:32;;;;;;;3.22;1.55;;;;;;;;;;6298438;22;20019;-76
2022/03/28 00:38:58;;;;;;;2.38;1.35;;;;;;;;;;6297105;22;20079;-75
2022/03/28 00:41:24;;;;;;;1.20;1.20;;;;;;;;;;6291449;22;20018;-77
2022/03/28 00:43:53;;;;;;;1.65;1.58;;;;;;;;;;6273869;22;20047;-76
2022/03/28 00:46:20;;;;;;;1.40;1.40;;;;;;;;;;6246619;22;20022;-75
2022/03/28 00:48:46;;;;;;;1.55;1.45;;;;;;;;;;6274198;22;20012;-77
2022/03/28 00:51:11;;;;;;;1.58;1.50;;;;;;;;;;6274291;22;20014;-75
2022/03/28 00:53:38;;;;;;;1.20;1.20;;;;;;;;;;6246944;22;20066;-76
2022/03/28 00:56:04;;;;;;;5.97;1.60;;;;;;;;;;6221112;22;20012;-75
2022/03/28 00:58:30;;;;;;;1.35;1.25;;;;;;;;;;6274072;22;20095;-76
2022/03/28 01:00:56;;;;;;;1.17;1.17;;;;;;;;;;6273576;22;20171;-76
2022/03/28 01:03:22;;;;;;;1.27;1.25;;;;;;;;;;6271871;22;20043;-77
2022/03/28 01:05:48;;;;;;;1.75;1.63;;;;;;;;;;6273932;22;20015;-76
2022/03/28 01:08:13;;;;;;;1.60;1.50;;;;;;;;;;6247454;22;20014;-76
2022/03/28 01:10:39;;;;;;;2.58;1.63;;;;;;;;;;6273136;22;20011;-75
2022/03/28 01:13:05;;;;;;;4.05;1.60;;;;;;;;;;6247408;22;20015;-74
2022/03/28 01:15:31;;;;;;;1.30;1.30;;;;;;;;;;6273078;22;20019;-75
2022/03/28 01:18:06;;;;;;;1.27;1.27;;;;;;;;;;6274879;22;20444;-75
2022/03/28 01:20:33;;;;;;;1.30;1.30;;;;;;;;;;6247875;22;20020;-76
2022/03/28 01:22:59;;;;;;;1.70;1.60;;;;;;;;;;6274561;22;20336;-75
2022/03/28 01:25:25;;;;;;;0.93;0.93;;;;;;;;;;6274606;22;20076;-75
2022/03/28 01:27:55;;;;;;;1.38;1.27;;;;;;;;;;6273010;22;20494;-73
2022/03/28 01:30:21;;;;;;;1.30;1.30;;;;;;;;;;6247305;22;20426;-74
2022/03/28 01:32:51;;;;;;;1.23;1.23;;;;;;;;;;6274509;22;20428;-75
2022/03/28 01:35:26;;;;;;;1.13;1.13;;;;;;;;;;6274447;22;20032;-75
2022/03/28 01:37:52;;;;;;;3.05;1.20;;;;;;;;;;6274466;22;20020;-74
2022/03/28 01:40:18;;;;;;;1.48;1.40;;;;;;;;;;6247123;22;20018;-76
2022/03/28 01:42:45;;;;;;;2.70;1.02;;;;;;;;;;6274486;22;20011;-75
2022/03/28 01:45:12;;;;;;;1.45;1.42;;;;;;;;;;6274228;22;20511;-76
2022/03/28 01:47:38;;;;;;;1.65;1.55;;;;;;;;;;6247367;22;20022;-75
2022/03/28 01:50:04;;;;;;;1.45;1.42;;;;;;;;;;6272822;22;20031;-76
2022/03/28 01:52:30;;;;;;;2.20;1.58;;;;;;;;;;6272459;22;20089;-75
2022/03/28 01:54:56;;;;;;;1.10;1.10;;;;;;;;;;6248126;22;20467;-76
2022/03/28 01:57:22;;;;;;;27.13;2.30;;;;;;;;;;6274836;22;20358;-75
2022/03/28 01:59:48;;;;;;;1.30;1.30;;;;;;;;;;6274963;22;20455;-74
2022/03/28 02:02:14;;;;;;;6.85;1.58;;;;;;;;;;6272379;22;20019;-75
2022/03/28 02:04:40;;;;;;;1.48;1.48;;;;;;;;;;6272637;22;20513;-74
2022/03/28 02:07:06;;;;;;;1.17;1.17;;;;;;;;;;6273899;22;20014;-75
2022/03/28 02:09:31;;;;;;;1.45;1.45;;;;;;;;;;6274209;22;20030;-75
2022/03/28 02:11:57;;;;;;;1.30;1.30;;;;;;;;;;6221595;22;20016;-75
2022/03/28 02:14:23;;;;;;;1.73;1.63;;;;;;;;;;6273542;22;20024;-75
2022/03/28 02:16:49;;;;;;;1.63;1.52;;;;;;;;;;6272133;22;20114;-74
2022/03/28 02:19:15;;;;;;;1.10;1.10;;;;;;;;;;6273573;22;20011;-75
2022/03/28 02:21:44;;;;;;;1.23;1.23;;;;;;;;;;6271781;22;20023;-75
2022/03/28 02:24:09;;;;;;;1.55;1.50;;;;;;;;;;6272544;22;20016;-77
2022/03/28 02:26:35;;;;;;;0.98;0.98;;;;;;;;;;6273738;22;20008;-76
2022/03/28 02:29:01;;;;;;;1.55;1.55;;;;;;;;;;6272506;22;20020;-77
2022/03/28 02:31:27;;;;;;;3.50;1.38;;;;;;;;;;6273598;22;20004;-76
2022/03/28 02:33:53;;;;;;;4.85;1.70;;;;;;;;;;6274048;22;20459;-76
2022/03/28 02:36:18;;;;;;;0.90;0.90;;;;;;;;;;6246650;22;20011;-77
2022/03/28 02:38:44;;;;;;;2.10;1.85;;;;;;;;;;6273883;22;20018;-75
2022/03/28 02:41:11;;;;;;;1.27;1.20;;;;;;;;;;6273796;22;20026;-77
2022/03/28 02:43:37;;;;;;;1.60;1.60;;;;;;;;;;6272628;22;20059;-76
2022/03/28 02:46:02;;;;;;;1.85;1.50;;;;;;;;;;6246675;22;20455;-77
2022/03/28 02:48:28;;;;;;;4.10;1.83;;;;;;;;;;6273567;22;20013;-77
2022/03/28 02:50:54;;;;;;;1.48;1.48;;;;;;;;;;6246985;22;20012;-75
2022/03/28 02:53:20;;;;;;;1.40;1.40;;;;;;;;;;6271763;22;20367;-75
2022/03/28 02:55:47;;;;;;;5.70;1.90;;;;;;;;;;6273591;22;20371;-75
2022/03/28 02:58:13;;;;;;;1.10;1.10;;;;;;;;;;6273608;22;20007;-76
2022/03/28 03:00:39;;;;;;;4.45;1.83;;;;;;;;;;6273943;22;20015;-72
2022/03/28 03:03:05;;;;;;;1.85;1.75;;;;;;;;;;6273466;22;20011;-74
2022/03/28 03:05:31;;;;;;;2.75;1.17;;;;;;;;;;6220792;22;20027;-74
2022/03/28 03:07:57;;;;;;;1.50;1.50;;;;;;;;;;6246163;22;20011;-74
2022/03/28 03:10:23;;;;;;;3.03;1.50;;;;;;;;;;6220622;22;20016;-73
2022/03/28 03:12:49;;;;;;;1.90;1.80;;;;;;;;;;6246198;22;20103;-74
2022/03/28 03:15:15;;;;;;;2.22;1.70;;;;;;;;;;6245838;22;20093;-73
2022/03/28 03:17:41;;;;;;;5.47;2.03;;;;;;;;;;6246120;22;20696;-73
2022/03/28 03:20:07;;;;;;;1.52;1.50;;;;;;;;;;6246336;22;20096;-73
2022/03/28 03:22:33;;;;;;;1.70;1.60;;;;;;;;;;6245865;22;20015;-73
2022/03/28 03:24:59;;;;;;;3.17;1.63;;;;;;;;;;6273243;22;20011;-73
2022/03/28 03:27:25;;;;;;;1.65;1.55;;;;;;;;;;6272848;22;20007;-74
2022/03/28 03:29:52;;;;;;;4.90;1.73;;;;;;;;;;6273098;22;20521;-74
2022/03/28 03:32:19;;;;;;;1.98;1.40;;;;;;;;;;6272450;22;20011;-73
2022/03/28 03:34:44;;;;;;;1.70;1.60;;;;;;;;;;6245784;22;20020;-73
2022/03/28 03:37:10;;;;;;;1.30;1.20;;;;;;;;;;6272967;22;20012;-74
2022/03/28 03:39:36;;;;;;;1.90;1.80;;;;;;;;;;6273076;22;20015;-73
2022/03/28 03:42:02;;;;;;;3.80;1.50;;;;;;;;;;6272602;22;20012;-73
2022/03/28 03:44:28;;;;;;;0.77;0.77;;;;;;;;;;6271179;22;20085;-75
2022/03/28 03:46:54;;;;;;;1.27;1.25;;;;;;;;;;6222472;22;20008;-73
2022/03/28 03:49:20;;;;;;;2.03;1.60;;;;;;;;;;6274431;22;20106;-73
2022/03/28 03:51:45;;;;;;;1.38;1.38;;;;;;;;;;6273277;22;20152;-72
2022/03/28 03:54:11;;;;;;;1.45;1.45;;;;;;;;;;6272249;22;20062;-74
2022/03/28 03:56:38;;;;;;;3.17;1.38;;;;;;;;;;6276124;22;20015;-74
2022/03/28 03:59:03;;;;;;;1.67;1.58;;;;;;;;;;6249094;22;20365;-75
2022/03/28 04:01:29;;;;;;;1.63;1.60;;;;;;;;;;6248370;22;20281;-74
2022/03/28 04:03:55;;;;;;;2.38;2.17;;;;;;;;;;6248839;22;20058;-73
2022/03/28 04:06:21;;;;;;;1.63;1.52;;;;;;;;;;6274214;22;20049;-73
2022/03/28 04:08:47;;;;;;;1.73;1.70;;;;;;;;;;6272462;22;20015;-74
2022/03/28 04:11:12;;;;;;;1.95;1.85;;;;;;;;;;6272790;22;20011;-75
2022/03/28 04:13:38;;;;;;;2.47;1.73;;;;;;;;;;6219958;22;20016;-74
2022/03/28 04:16:04;;;;;;;8.52;2.10;;;;;;;;;;6244203;22;20031;-74
2022/03/28 04:18:30;;;;;;;1.15;1.15;;;;;;;;;;6272168;22;20051;-74
2022/03/28 04:20:56;;;;;;;1.83;1.73;;;;;;;;;;6272265;22;20344;-73
2022/03/28 04:23:22;;;;;;;1.45;1.45;;;;;;;;;;6270493;22;20012;-73
2022/03/28 04:25:49;;;;;;;2.45;1.38;;;;;;;;;;6272594;22;20509;-73
2022/03/28 04:28:14;;;;;;;5.18;1.85;;;;;;;;;;6272160;22;20012;-73
2022/03/28 04:30:40;;;;;;;2.00;1.90;;;;;;;;;;6272404;22;20023;-73
2022/03/28 04:33:09;;;;;;;2.05;1.95;;;;;;;;;;6271004;22;20355;-73
2022/03/28 04:35:36;;;;;;;5.18;2.60;;;;;;;;;;6272436;22;20034;-73
2022/03/28 04:38:04;;;;;;;2.35;2.15;;;;;;;;;;6272546;22;20012;-73
2022/03/28 04:40:30;;;;;;;3.20;2.22;;;;;;;;;;6272462;22;20008;-73
2022/03/28 04:42:56;;;;;;;2.97;1.52;;;;;;;;;;6272682;22;20049;-73
2022/03/28 04:45:22;;;;;;;2.13;2.03;;;;;;;;;;6247405;22;20015;-73
2022/03/28 04:47:48;;;;;;;1.60;1.50;;;;;;;;;;6274680;22;20015;-73
2022/03/28 04:50:13;;;;;;;5.15;2.35;;;;;;;;;;6273413;22;20486;-74
2022/03/28 04:52:39;;;;;;;1.73;1.63;;;;;;;;;;6274872;22;20014;-73
2022/03/28 04:55:05;;;;;;;1.77;1.67;;;;;;;;;;6273385;22;20019;-73
2022/03/28 04:57:31;;;;;;;1.92;1.83;;;;;;;;;;6272509;22;20012;-73
2022/03/28 04:59:57;;;;;;;1.88;1.70;;;;;;;;;;6272919;22;20094;-73
2022/03/28 05:02:23;;;;;;;7.13;2.10;;;;;;;;;;6247008;22;20104;-73
2022/03/28 05:04:49;;;;;;;2.25;2.00;;;;;;;;;;6222050;22;20019;-72
2022/03/28 05:07:41;;;;;;;2.35;2.15;;;;;;;;;;6274649;22;20019;-73
2022/03/28 05:10:07;;;;;;;2.17;2.00;;;;;;;;;;6270618;22;20011;-73
2022/03/28 05:12:33;;;;;;;2.38;2.17;;;;;;;;;;6274440;22;20016;-73
2022/03/28 05:14:59;;;;;;;3.63;2.30;;;;;;;;;;6272875;22;20024;-74
2022/03/28 05:17:26;;;;;;;2.15;1.95;;;;;;;;;;6274432;22;20038;-74
2022/03/28 05:19:52;;;;;;;2.42;2.25;;;;;;;;;;6274925;22;20012;-74
2022/03/28 05:22:18;;;;;;;1.85;1.75;;;;;;;;;;6247273;22;20022;-71
2022/03/28 05:24:45;;;;;;;1.52;1.52;;;;;;;;;;6274343;22;20014;-71
2022/03/28 05:27:11;;;;;;;2.28;2.08;;;;;;;;;;6274331;22;20039;-71
2022/03/28 05:29:37;;;;;;;2.25;1.60;;;;;;;;;;6273938;22;20348;-70
2022/03/28 05:32:03;;;;;;;1.30;1.30;;;;;;;;;;6241890;22;20026;-70
2022/03/28 05:34:30;;;;;;;2.65;2.45;;;;;;;;;;6270526;22;20054;-70
2022/03/28 05:36:57;;;;;;;2.03;1.80;;;;;;;;;;6272527;22;20092;-71
2022/03/28 05:39:23;;;;;;;2.17;1.80;;;;;;;;;;6245419;22;20052;-70
2022/03/28 05:41:49;;;;;;;4.68;2.80;;;;;;;;;;6272458;22;20086;-71
2022/03/28 05:44:15;;;;;;;5.53;2.60;;;;;;;;;;6272191;22;20015;-72
2022/03/28 05:46:40;;;;;;;3.55;2.80;;;;;;;;;;6271845;22;20387;-70
2022/03/28 05:49:06;;;;;;;4.40;2.50;;;;;;;;;;6270745;22;20011;-70
2022/03/28 05:51:32;;;;;;;2.78;2.58;;;;;;;;;;6270773;22;20012;-70
2022/03/28 05:53:58;;;;;;;4.88;2.88;;;;;;;;;;6244984;22;20024;-70
2022/03/28 05:56:24;;;;;;;5.13;3.40;;;;;;;;;;6270353;22;20012;-70
2022/03/28 05:58:50;;;;;;;4.32;2.70;;;;;;;;;;6272492;22;20141;-70
2022/03/28 06:01:16;;;;;;;2.72;2.30;;;;;;;;;;6245490;22;20035;-70
2022/03/28 06:03:42;;;;;;;5.18;2.63;;;;;;;;;;6272071;22;20114;-71
2022/03/28 06:06:08;;;;;;;2.67;2.35;;;;;;;;;;6271823;22;20008;-70
2022/03/28 06:08:34;;;;;;;2.55;2.28;;;;;;;;;;6246788;22;20012;-70
2022/03/28 06:11:03;;;;;;;3.17;2.65;;;;;;;;;;6245538;22;20410;-70
2022/03/28 06:13:30;;;;;;;2.58;2.40;;;;;;;;;;6272271;22;20012;-71
2022/03/28 06:15:56;;;;;;;2.17;2.05;;;;;;;;;;6219829;22;20027;-71
2022/03/28 06:18:22;;;;;;;2.13;1.98;;;;;;;;;;6271775;22;20008;-69
2022/03/28 06:20:48;;;;;;;3.70;2.15;;;;;;;;;;6272197;22;20478;-69
2022/03/28 06:23:14;;;;;;;9.88;2.85;;;;;;;;;;6245233;22;20340;-69
2022/03/28 06:25:40;;;;;;;3.30;2.85;;;;;;;;;;6271630;22;20011;-70
2022/03/28 06:28:06;;;;;;;2.63;2.03;;;;;;;;;;6272034;22;20410;-70
2022/03/28 06:30:32;;;;;;;2.75;2.55;;;;;;;;;;6270259;22;20039;-69
2022/03/28 06:32:58;;;;;;;4.93;1.92;;;;;;;;;;6271390;22;20012;-69
2022/03/28 06:35:24;;;;;;;3.03;2.42;;;;;;;;;;6269974;22;20020;-68
2022/03/28 06:37:52;;;;;;;1.92;1.83;;;;;;;;;;6270354;22;20011;-69
2022/03/28 06:40:17;;;;;;;2.03;1.92;;;;;;;;;;6270585;22;20020;-69
2022/03/28 06:42:44;;;;;;;2.45;2.30;;;;;;;;;;6272248;22;20014;-69
2022/03/28 06:45:10;;;;;;;7.25;3.42;;;;;;;;;;6245309;22;20081;-69
2022/03/28 06:47:36;;;;;;;5.40;3.42;;;;;;;;;;6271904;22;20018;-70
2022/03/28 06:50:03;;;;;;;4.45;2.55;;;;;;;;;;6245004;22;20098;-69
2022/03/28 06:52:29;;;;;;;5.25;2.35;;;;;;;;;;6244174;22;20035;-69
2022/03/28 06:54:55;;;;;;;1.77;1.77;;;;;;;;;;6271720;22;20019;-71
2022/03/28 06:57:21;;;;;;;2.80;2.55;;;;;;;;;;6271709;22;20054;-69
2022/03/28 06:59:46;;;;;;;2.03;1.92;;;;;;;;;;6271842;22;20119;-69
2022/03/28 07:02:12;;;;;;;2.70;2.03;;;;;;;;;;6271325;22;20119;-69
2022/03/28 07:04:38;;;;;;;2.72;2.47;;;;;;;;;;6269908;22;20011;-70
2022/03/28 07:07:04;;;;;;;2.03;1.92;;;;;;;;;;6219054;22;20019;-70
2022/03/28 07:09:30;;;;;;;1.90;1.80;;;;;;;;;;6271592;22;20012;-72
2022/03/28 07:11:56;;;;;;;5.53;2.60;;;;;;;;;;6271529;22;20012;-70
2022/03/28 07:14:22;;;;;;;8.77;2.40;;;;;;;;;;6244000;22;20576;-71
2022/03/28 07:16:47;;;;;;;5.20;2.63;;;;;;;;;;6271564;22;20047;-71
2022/03/28 07:19:13;;;;;;;5.03;2.33;;;;;;;;;;6271332;22;20022;-71
2022/03/28 07:21:39;;;;;;;2.38;1.98;;;;;;;;;;6271365;22;21013;-71
2022/03/28 07:24:05;;;;;;;2.05;1.95;;;;;;;;;;6270118;22;20039;-71
2022/03/28 07:26:31;;;;;;;5.00;2.08;;;;;;;;;;6244342;22;20512;-71
2022/03/28 07:29:02;;;;;;;4.45;2.08;;;;;;;;;;6271437;22;20015;-70
2022/03/28 07:31:29;;;;;;;2.30;2.20;;;;;;;;;;6270975;22;20471;-70
2022/03/28 07:34:29;;;;;;;2.08;1.88;;;;;;;;;;6270946;22;20455;-70
2022/03/28 07:36:40;;;;;;;2.83;2.17;;;;;;;;;;6270421;22;20459;-70
2022/03/28 07:39:06;;;;;;;1.98;1.77;;;;;;;;;;6244138;22;20033;-70
2022/03/28 07:41:32;;;;;;;2.40;2.20;;;;;;;;;;6271145;22;20470;-70
2022/03/28 07:43:57;;;;;;;1.90;1.75;;;;;;;;;;6271088;22;20008;-69
2022/03/28 07:46:23;;;;;;;4.60;2.65;;;;;;;;;;6271359;22;20015;-70
2022/03/28 07:48:49;;;;;;;1.80;1.70;;;;;;;;;;6271189;22;20008;-68
2022/03/28 07:51:15;;;;;;;2.10;2.00;;;;;;;;;;6270862;22;20012;-69
2022/03/28 07:53:41;;;;;;;2.00;1.83;;;;;;;;;;6270056;22;20011;-71
2022/03/28 07:56:07;;;;;;;3.42;2.15;;;;;;;;;;6269841;22;20308;-71
2022/03/28 07:58:34;;;;;;;1.45;1.45;;;;;;;;;;6270932;22;20034;-71
2022/03/28 08:01:00;;;;;;;2.60;2.25;;;;;;;;;;6271306;22;20086;-70
2022/03/28 08:03:25;;;;;;;1.73;1.63;;;;;;;;;;6269391;22;20035;-71
2022/03/28 08:05:53;;;;;;;2.60;2.10;;;;;;;;;;6269216;22;20033;-69
2022/03/28 08:08:20;;;;;;;3.83;2.17;;;;;;;;;;6271682;22;20098;-70
2022/03/28 08:10:46;;;;;;;3.65;1.85;;;;;;;;;;6245232;22;20018;-70
2022/03/28 08:13:12;;;;;;;2.45;2.22;;;;;;;;;;6270233;22;20534;-70
2022/03/28 08:15:38;;;;;;;1.58;1.58;;;;;;;;;;6270821;22;20536;-69
2022/03/28 08:18:06;;;;;;;2.00;1.90;;;;;;;;;;6266185;22;20046;-70
2022/03/28 08:20:32;;;;;;;3.47;1.60;;;;;;;;;;6246118;22;20510;-70
2022/03/28 08:22:59;;;;;;;2.90;1.55;;;;;;;;;;6271614;22;20047;-71
2022/03/28 08:25:25;;;;;;;1.65;1.55;;;;;;;;;;6271380;22;20354;-70
2022/03/28 08:27:52;;;;;;;2.05;1.83;;;;;;;;;;6271194;22;20051;-70
2022/03/28 08:30:18;;;;;;;3.10;1.70;;;;;;;;;;6246750;22;20039;-69
2022/03/28 08:32:46;;;;;;;2.25;1.75;;;;;;;;;;6272493;22;20035;-69
2022/03/28 08:35:12;;;;;;;2.88;1.92;;;;;;;;;;6246115;22;20433;-69
2022/03/28 08:37:38;;;;;;;2.20;1.92;;;;;;;;;;6273161;22;20097;-70
2022/03/28 08:40:05;;;;;;;2.80;1.63;;;;;;;;;;6246293;22;20012;-69
2022/03/28 08:42:33;;;;;;;3.67;1.35;;;;;;;;;;6271247;22;20014;-69
2022/03/28 08:44:59;;;;;;;1.80;1.70;;;;;;;;;;6273576;22;20015;-69
2022/03/28 08:47:26;;;;;;;26.95;2.90;;;;;;;;;;6272332;22;20012;-70
2022/03/28 08:49:52;;;;;;;1.20;1.20;;;;;;;;;;6271384;22;20016;-69
2022/03/28 08:52:18;;;;;;;2.28;2.15;;;;;;;;;;6271187;22;20462;-69
2022/03/28 08:54:44;;;;;;;2.97;1.95;;;;;;;;;;6270820;22;20439;-69
2022/03/28 08:57:13;;;;;;;2.60;2.38;;;;;;;;;;6272815;22;20008;-69
2022/03/28 08:59:39;;;;;;;3.72;2.55;;;;;;;;;;6244769;22;20094;-69
2022/03/28 09:02:05;;;;;;;5.30;3.15;;;;;;;;;;6269931;22;20449;-69
2022/03/28 09:04:32;;;;;;;2.33;2.15;;;;;;;;;;6270113;22;20023;-69
2022/03/28 09:06:58;;;;;;;2.10;2.00;;;;;;;;;;6270670;22;20035;-69
2022/03/28 09:09:26;;;;;;;3.38;2.40;;;;;;;;;;6242808;22;20460;-69
2022/03/28 09:11:52;;;;;;;2.50;2.30;;;;;;;;;;6270381;22;20019;-69
2022/03/28 09:14:28;;;;;;;1.75;1.65;;;;;;;;;;6269116;22;20019;-69
2022/03/28 09:16:59;;;;;;;1.75;1.73;;;;;;;;;;6270756;22;20016;-69
2022/03/28 09:19:25;;;;;;;1.80;1.70;;;;;;;;;;6243333;22;20401;-69
2022/03/28 09:21:50;;;;;;;1.40;1.40;;;;;;;;;;6269302;22;20090;-69
2022/03/28 09:24:16;;;;;;;2.45;1.92;;;;;;;;;;6271963;22;20090;-69
2022/03/28 09:26:42;;;;;;;2.47;2.28;;;;;;;;;;6244427;22;20403;-69
2022/03/28 09:29:08;;;;;;;3.58;2.08;;;;;;;;;;6272420;22;20022;-69
2022/03/28 09:31:34;;;;;;;2.35;2.25;;;;;;;;;;6269833;22;20509;-69
2022/03/28 09:34:07;;;;;;;6.45;1.98;;;;;;;;;;6272240;22;20019;-69
2022/03/28 09:36:33;;;;;;;5.75;2.88;;;;;;;;;;6272635;22;20053;-69
2022/03/28 09:38:59;;;;;;;3.42;2.08;;;;;;;;;;6245546;22;20015;-69
2022/03/28 09:41:25;;;;;;;7.45;2.28;;;;;;;;;;6272340;22;20042;-69
2022/03/28 09:43:54;;;;;;;1.88;1.70;;;;;;;;;;6245161;22;20563;-69
2022/03/28 09:46:27;;;;;;;3.08;2.47;;;;;;;;;;6273255;22;20018;-70
2022/03/28 09:48:53;;;;;;;2.60;2.40;;;;;;;;;;6245633;22;20034;-70
2022/03/28 09:51:21;;;;;;;11.73;2.45;;;;;;;;;;6272861;22;20081;-70
2022/03/28 09:53:47;;;;;;;2.35;2.20;;;;;;;;;;6271316;22;20022;-69
2022/03/28 09:56:13;;;;;;;2.90;2.70;;;;;;;;;;6245630;22;20509;-69
2022/03/28 09:58:42;;;;;;;7.00;2.75;;;;;;;;;;6272409;22;20072;-70
2022/03/28 10:01:13;;;;;;;3.58;2.45;;;;;;;;;;6270203;22;20015;-70
2022/03/28 10:03:39;;;;;;;5.03;2.87;;;;;;;;;;6270219;22;20008;-70
2022/03/28 10:06:05;;;;;;;2.13;2.03;;;;;;;;;;6271165;22;20554;-70
2022/03/28 10:08:32;;;;;;;3.10;2.85;;;;;;;;;;6271936;22;20221;-70
2022/03/28 10:10:58;;;;;;;2.15;2.05;;;;;;;;;;6272542;22;20008;-70
2022/03/28 10:13:24;;;;;;;1.73;1.70;;;;;;;;;;6271827;22;20011;-70
2022/03/28 10:15:50;;;;;;;3.20;2.15;;;;;;;;;;6219784;22;20027;-69
2022/03/28 10:18:16;;;;;;;1.92;1.83;;;;;;;;;;6272236;22;20015;-70
2022/03/28 10:20:44;;;;;;;2.95;2.75;;;;;;;;;;6272174;22;20016;-70
2022/03/28 10:23:11;;;;;;;2.55;2.38;;;;;;;;;;6270550;22;20519;-70
2022/03/28 10:25:37;;;;;;;2.53;2.33;;;;;;;;;;6244199;22;20399;-70
2022/03/28 10:28:04;;;;;;;6.22;3.22;;;;;;;;;;6271882;22;20458;-70
2022/03/28 10:30:31;;;;;;;4.55;2.95;;;;;;;;;;6270191;22;20011;-71
2022/03/28 10:33:23;;;;;;;2.50;2.28;;;;;;;;;;6271267;22;20018;-70
2022/03/28 10:35:55;;;;;;;3.75;1.95;;;;;;;;;;6240699;22;20097;-70
2022/03/28 10:38:21;;;;;;;2.25;1.95;;;;;;;;;;6272603;22;20507;-70
2022/03/28 10:40:53;;;;;;;3.20;2.90;;;;;;;;;;6271775;22;20038;-70
2022/03/28 10:43:19;;;;;;;4.25;2.42;;;;;;;;;;6272313;22;20016;-69
2022/03/28 10:45:46;;;;;;;2.40;2.20;;;;;;;;;;6244369;22;20037;-69
2022/03/28 10:48:12;;;;;;;3.47;3.17;;;;;;;;;;6271713;22;20604;-69
2022/03/28 10:50:42;;;;;;;2.58;2.38;;;;;;;;;;6271722;22;20094;-70
2022/03/28 10:53:15;;;;;;;3.90;3.08;;;;;;;;;;6270310;22;20016;-70
2022/03/28 10:55:44;;;;;;;2.70;2.50;;;;;;;;;;6271670;22;20033;-70
2022/03/28 10:58:14;;;;;;;8.38;2.97;;;;;;;;;;6271360;22;20011;-70
2022/03/28 11:00:58;;;;;;;2.55;2.35;;;;;;;;;;6271637;22;20068;-69
2022/03/28 11:03:37;;;;;;;2.92;2.72;;;;;;;;;;6272132;22;20466;-70
2022/03/28 11:06:03;;;;;;;2.33;2.22;;;;;;;;;;6244998;22;20011;-71
2022/03/28 11:08:32;;;;;;;3.38;3.08;;;;;;;;;;6244054;22;20027;-69
2022/03/28 11:11:18;;;;;;;4.03;2.60;;;;;;;;;;6220010;22;20057;-70
2022/03/28 11:13:55;;;;;;;5.45;3.50;;;;;;;;;;6271362;22;20039;-69
2022/03/28 11:16:22;;;;;;;3.50;3.20;;;;;;;;;;6244334;22;20114;-70
2022/03/28 11:19:08;;;;;;;6.00;3.60;;;;;;;;;;6270017;22;20073;-70
2022/03/28 11:21:34;;;;;;;4.40;3.13;;;;;;;;;;6273197;22;20477;-69
2022/03/28 11:24:09;;;;;;;3.30;3.08;;;;;;;;;;6272126;22;20012;-70
2022/03/28 11:26:35;;;;;;;3.30;3.10;;;;;;;;;;6270516;22;20011;-70
2022/03/28 11:29:05;;;;;;;2.83;2.47;;;;;;;;;;6273987;22;20022;-71
2022/03/28 11:31:31;;;;;;;3.60;3.30;;;;;;;;;;6248306;22;20012;-70
2022/03/28 11:33:57;;;;;;;3.97;3.30;;;;;;;;;;6244679;22;20016;-70
2022/03/28 11:36:22;;;;;;;3.20;3.00;;;;;;;;;;6271992;22;20447;-71
2022/03/28 11:38:53;;;;;;;16.35;4.65;;;;;;;;;;6271806;22;20008;-68
2022/03/28 11:41:20;;;;;;;4.68;4.28;;;;;;;;;;6245207;22;20046;-71
2022/03/28 11:43:47;;;;;;;4.15;3.80;;;;;;;;;;6271033;22;20008;-71
2022/03/28 11:46:13;;;;;;;3.15;2.85;;;;;;;;;;6269734;22;20465;-71
2022/03/28 11:48:50;;;;;;;2.72;2.63;;;;;;;;;;6271457;22;20061;-69
2022/03/28 11:51:16;;;;;;;4.28;3.63;;;;;;;;;;6270418;22;20019;-70
2022/03/28 11:53:42;;;;;;;4.45;2.88;;;;;;;;;;6270757;22;20054;-69
2022/03/28 11:56:08;;;;;;;3.42;3.13;;;;;;;;;;6245210;22;20015;-68
2022/03/28 11:58:37;;;;;;;3.25;2.90;;;;;;;;;;6270701;22;20007;-69
2022/03/28 12:01:10;;;;;;;2.95;2.42;;;;;;;;;;6271198;22;20011;-69
2022/03/28 12:03:37;;;;;;;4.05;3.65;;;;;;;;;;6243939;22;20086;-69
2022/03/28 12:06:06;;;;;;;3.17;2.88;;;;;;;;;;6271370;22;20094;-69
2022/03/28 12:08:32;;;;;;;3.45;2.85;;;;;;;;;;6270881;22;20497;-69
2022/03/28 12:10:58;;;;;;;3.35;3.15;;;;;;;;;;6272873;22;20041;-71
2022/03/28 12:13:24;;;;;;;4.22;3.80;;;;;;;;;;6270644;22;20011;-71
2022/03/28 12:15:51;;;;;;;6.43;3.40;;;;;;;;;;6243558;22;20027;-72
2022/03/28 12:18:18;;;;;;;3.40;3.13;;;;;;;;;;6271112;22;20095;-71
2022/03/28 12:20:44;;;;;;;3.38;3.10;;;;;;;;;;6269518;22;20022;-71
2022/03/28 12:23:12;;;;;;;3.72;3.42;;;;;;;;;;6270958;22;20495;-70
2022/03/28 12:25:38;;;;;;;3.08;2.88;;;;;;;;;;6271111;22;20087;-70
2022/03/28 12:28:05;;;;;;;3.40;2.33;;;;;;;;;;6269451;22;20485;-71
2022/03/28 12:30:33;;;;;;;2.50;2.40;;;;;;;;;;6244283;22;20023;-72
2022/03/28 12:33:07;;;;;;;2.92;2.72;;;;;;;;;;6269494;22;20019;-72
2022/03/28 12:35:32;;;;;;;2.65;2.55;;;;;;;;;;6244081;22;20351;-72
2022/03/28 12:37:59;;;;;;;3.72;3.08;;;;;;;;;;6270991;22;20007;-71
2022/03/28 12:40:29;;;;;;;3.00;2.80;;;;;;;;;;6244734;22;20016;-71
2022/03/28 12:42:55;;;;;;;3.58;3.28;;;;;;;;;;6269718;22;20004;-72
2022/03/28 12:45:24;;;;;;;3.10;2.83;;;;;;;;;;6244154;22;20020;-72
2022/03/28 12:47:57;;;;;;;3.50;3.20;;;;;;;;;;6271978;22;20011;-72
2022/03/28 12:50:26;;;;;;;3.30;3.10;;;;;;;;;;6269815;22;20501;-72
2022/03/28 12:53:06;;;;;;;4.13;2.75;;;;;;;;;;6218813;22;20042;-71
2022/03/28 12:55:32;;;;;;;3.17;2.88;;;;;;;;;;6244825;22;20026;-71
2022/03/28 12:58:00;;;;;;;2.38;2.17;;;;;;;;;;6270092;22;20098;-71
2022/03/28 13:00:26;;;;;;;2.30;2.17;;;;;;;;;;6244118;22;20026;-71
2022/03/28 13:02:53;;;;;;;3.30;3.10;;;;;;;;;;6271234;22;20417;-70
2022/03/28 13:05:19;;;;;;;2.42;2.33;;;;;;;;;;6269984;22;20047;-70
2022/03/28 13:07:47;;;;;;;6.50;3.88;;;;;;;;;;6271683;22;20008;-70
2022/03/28 13:10:20;;;;;;;3.30;3.08;;;;;;;;;;6272063;22;20442;-70
2022/03/28 13:12:47;;;;;;;3.47;3.28;;;;;;;;;;6271656;22;20351;-71
2022/03/28 13:15:20;;;;;;;4.53;4.22;;;;;;;;;;6222473;22;20028;-70
2022/03/28 13:17:48;;;;;;;3.15;2.65;;;;;;;;;;6274705;22;20461;-70
2022/03/28 13:20:17;;;;;;;4.13;3.83;;;;;;;;;;6248274;22;20019;-70
2022/03/28 13:22:46;;;;;;;4.00;3.70;;;;;;;;;;6274792;22;20007;-69
2022/03/28 13:25:13;;;;;;;4.13;3.55;;;;;;;;;;6275256;22;20023;-70
2022/03/28 13:30:27;;;;;;;4.43;4.03;;;;;;;;;;6274078;22;20015;-70
2022/03/28 13:32:53;;;;;;;4.82;4.32;;;;;;;;;;6274487;22;20030;-69
2022/03/28 13:35:19;;;;;;;3.75;3.55;;;;;;;;;;6274170;22;20035;-68
2022/03/28 13:37:58;;;;;;;5.68;4.90;;;;;;;;;;6247443;22;20061;-69
2022/03/28 13:40:24;;;;;;;4.50;4.15;;;;;;;;;;6247220;22;20042;-68
2022/03/28 13:42:50;;;;;;;8.48;4.20;;;;;;;;;;6274265;22;20054;-69
2022/03/28 13:45:16;;;;;;;5.55;4.78;;;;;;;;;;6274107;22;20098;-69
2022/03/28 13:47:42;;;;;;;4.40;3.67;;;;;;;;;;6273946;22;20039;-69
2022/03/28 13:50:08;;;;;;;8.05;5.50;;;;;;;;;;6247361;22;20016;-69
2022/03/28 13:52:35;;;;;;;5.13;4.70;;;;;;;;;;6272690;22;20355;-69
2022/03/28 13:55:01;;;;;;;5.80;5.15;;;;;;;;;;6274080;22;20031;-69
2022/03/28 13:57:26;;;;;;;5.90;5.40;;;;;;;;;;6272381;22;20008;-69
2022/03/28 13:59:52;;;;;;;5.80;5.28;;;;;;;;;;6274656;22;20054;-69
2022/03/28 14:02:21;;;;;;;5.68;5.07;;;;;;;;;;6247541;22;20011;-69
2022/03/28 14:04:51;;;;;;;6.20;5.70;;;;;;;;;;6273558;22;20068;-69
2022/03/28 14:07:17;;;;;;;5.35;4.78;;;;;;;;;;6273955;22;20078;-71
2022/03/28 14:09:42;;;;;;;7.38;5.93;;;;;;;;;;6273317;22;20065;-70
2022/03/28 14:12:09;;;;;;;6.75;6.03;;;;;;;;;;6221178;22;20011;-71
2022/03/28 14:14:38;;;;;;;9.25;5.38;;;;;;;;;;6272880;22;20043;-70
2022/03/28 14:17:04;;;;;;;6.45;5.90;;;;;;;;;;6272180;22;20016;-70
2022/03/28 14:19:30;;;;;;;8.27;7.47;;;;;;;;;;6271863;22;20035;-71
2022/03/28 14:21:56;;;;;;;7.80;6.75;;;;;;;;;;6273564;22;20012;-70
2022/03/28 14:24:21;;;;;;;6.38;5.28;;;;;;;;;;6271917;22;20696;-71
2022/03/28 14:26:47;;;;;;;5.88;5.30;;;;;;;;;;6271831;22;20019;-71
2022/03/28 14:29:13;;;;;;;12.65;7.05;;;;;;;;;;6221080;22;20022;-71
2022/03/28 14:31:39;;;;;;;7.65;5.30;;;;;;;;;;6246085;22;20007;-70
2022/03/28 14:34:05;;;;;;;7.47;6.88;;;;;;;;;;6273255;22;20012;-71
2022/03/28 14:36:31;;;;;;;5.88;5.40;;;;;;;;;;6271651;22;20046;-71
2022/03/28 14:38:57;;;;;;;4.88;4.47;;;;;;;;;;6195817;22;20008;-70
2022/03/28 14:41:23;;;;;;;4.15;3.67;;;;;;;;;;6273491;22;20038;-70
2022/03/28 14:43:49;;;;;;;4.05;3.75;;;;;;;;;;6245896;22;20011;-70